createdAt,value
2022-09-09T00:04:03.051Z,10.65
2022-09-09T00:09:13.145Z,10.77
2022-09-09T00:14:42.607Z,13.68
2022-09-09T00:19:54.642Z,9.25
2022-09-09T00:25:17.932Z,12.43
2022-09-09T00:30:26.756Z,14.85
2022-09-09T00:35:33.690Z,8.98
2022-09-09T00:40:42.182Z,11.80
2022-09-09T00:46:10.746Z,13.85
2022-09-09T00:51:40.778Z,11.05
2022-09-09T00:56:54.991Z,13.65
2022-09-09T01:01:58.389Z,14.30
2022-09-09T01:07:16.793Z,14.50
2022-09-09T01:12:28.045Z,12.23
2022-09-09T01:17:50.405Z,11.40
2022-09-09T01:23:26.784Z,14.27
2022-09-09T01:28:46.567Z,14.95
2022-09-09T01:33:51.110Z,16.15
2022-09-09T01:38:54.520Z,13.48
2022-09-09T01:43:57.886Z,15.38
2022-09-09T01:49:03.856Z,16.58
2022-09-09T01:54:07.358Z,11.83
2022-09-09T01:59:43.600Z,15.27
2022-09-09T02:04:53.270Z,16.45
2022-09-09T02:10:09.747Z,13.90
2022-09-09T02:15:29.773Z,13.48
2022-09-09T02:20:35.182Z,18.48
2022-09-09T02:30:56.309Z,12.38
2022-09-09T02:36:08.565Z,12.15
2022-09-09T02:41:11.401Z,16.25
2022-09-09T02:46:50.913Z,17.08
2022-09-09T02:52:02.182Z,13.68
2022-09-09T02:57:13.759Z,13.55
2022-09-09T03:02:17.490Z,12.45
2022-09-09T03:07:23.895Z,14.30
2022-09-09T03:12:27.928Z,16.17
2022-09-09T03:17:30.183Z,13.70
2022-09-09T03:22:34.080Z,14.02
2022-09-09T03:27:37.038Z,15.20
2022-09-09T03:32:41.255Z,13.55
2022-09-09T03:37:43.785Z,16.05
2022-09-09T03:42:49.111Z,14.65
2022-09-09T03:47:52.723Z,14.03
2022-09-09T03:52:55.061Z,9.38
2022-09-09T03:57:58.232Z,15.25
2022-09-09T04:03:00.532Z,10.32
2022-09-09T04:08:02.899Z,14.65
2022-09-09T04:13:06.340Z,15.95
2022-09-09T04:18:09.175Z,14.20
2022-09-09T04:23:11.481Z,12.35
2022-09-09T04:28:15.327Z,9.73
2022-09-09T04:33:18.481Z,17.30
2022-09-09T04:38:21.578Z,10.00
2022-09-09T04:43:26.820Z,11.65
2022-09-09T04:48:29.808Z,5.95
2022-09-09T04:53:35.053Z,5.88
2022-09-09T04:58:38.181Z,9.75
2022-09-09T05:03:42.300Z,7.45
2022-09-09T05:08:47.855Z,10.35
2022-09-09T05:13:53.624Z,6.40
2022-09-09T05:18:55.963Z,13.65
2022-09-09T05:23:58.895Z,10.77
2022-09-09T05:29:01.590Z,8.60
2022-09-09T05:34:05.808Z,8.18
2022-09-09T05:39:08.131Z,9.80
2022-09-09T05:44:10.758Z,6.68
2022-09-09T05:49:16.731Z,8.70
2022-09-09T05:54:20.300Z,8.63
2022-09-09T05:59:25.892Z,9.18
2022-09-09T06:04:31.715Z,8.90
2022-09-09T06:09:35.362Z,9.90
2022-09-09T06:14:38.028Z,8.88
2022-09-09T06:19:40.371Z,6.13
2022-09-09T06:24:43.345Z,9.20
2022-09-09T06:29:45.585Z,10.93
2022-09-09T06:34:50.370Z,9.35
2022-09-09T06:39:52.760Z,11.50
2022-09-09T06:44:55.472Z,8.60
2022-09-09T06:50:08.384Z,10.63
2022-09-09T06:55:11.546Z,9.27
2022-09-09T07:00:15.139Z,8.60
2022-09-09T07:05:17.615Z,8.15
2022-09-09T07:10:21.967Z,8.52
2022-09-09T07:15:24.209Z,9.88
2022-09-09T07:20:26.522Z,8.70
2022-09-09T07:25:30.005Z,12.93
2022-09-09T07:30:33.068Z,7.63
2022-09-09T07:35:35.473Z,10.63
2022-09-09T07:40:37.738Z,15.05
2022-09-09T07:45:41.622Z,8.85
2022-09-09T07:50:44.212Z,9.93
2022-09-09T07:55:46.738Z,7.20
2022-09-09T08:00:48.856Z,11.80
2022-09-09T08:05:51.173Z,10.82
2022-09-09T08:10:54.032Z,10.02
2022-09-09T08:15:56.936Z,15.13
2022-09-09T08:20:59.242Z,11.35
2022-09-09T08:26:06.969Z,10.00
2022-09-09T08:31:16.258Z,12.98
2022-09-09T08:36:23.000Z,12.85
2022-09-09T08:41:40.949Z,13.23
2022-09-09T08:46:53.187Z,15.00
2022-09-09T08:51:57.087Z,9.18
2022-09-09T08:56:59.824Z,12.82
2022-09-09T09:02:43.712Z,7.35
2022-09-09T09:08:08.227Z,11.52
2022-09-09T09:13:32.877Z,12.02
2022-09-09T09:18:36.457Z,13.43
2022-09-09T09:24:00.239Z,9.25
2022-09-09T09:29:16.153Z,13.65
2022-09-09T09:34:19.045Z,8.50
2022-09-09T09:44:52.696Z,8.90
2022-09-09T09:50:03.553Z,9.70
2022-09-09T09:55:15.600Z,9.93
2022-09-09T10:00:23.535Z,5.80
2022-09-09T10:05:46.757Z,7.82
2022-09-09T10:11:18.420Z,11.00
2022-09-09T10:16:29.863Z,9.70
2022-09-09T10:21:59.812Z,9.00
2022-09-09T10:27:07.556Z,11.27
2022-09-09T10:32:32.232Z,7.47
2022-09-09T10:37:52.835Z,11.13
2022-09-09T10:43:02.139Z,6.95
2022-09-09T10:48:22.280Z,8.68
2022-09-09T10:53:48.473Z,10.68
2022-09-09T10:59:08.369Z,13.00
2022-09-09T11:04:35.150Z,8.50
2022-09-09T11:09:45.232Z,5.38
2022-09-09T11:15:00.885Z,6.53
2022-09-09T11:20:05.930Z,5.05
2022-09-09T11:25:10.893Z,7.03
2022-09-09T11:30:51.687Z,6.03
2022-09-09T11:36:27.452Z,5.20
2022-09-09T11:41:37.585Z,6.05
2022-09-09T11:46:41.146Z,8.00
2022-09-09T11:51:43.356Z,4.93
2022-09-09T11:56:47.080Z,2.28
2022-09-09T12:02:22.954Z,2.33
2022-09-09T12:07:37.039Z,3.33
2022-09-09T12:12:43.860Z,3.42
2022-09-09T12:17:48.848Z,6.95
2022-09-09T12:23:17.131Z,7.32
2022-09-09T12:28:33.234Z,4.47
2022-09-09T12:33:46.230Z,5.03
2022-09-09T12:38:50.431Z,6.80
2022-09-09T12:44:03.861Z,8.43
2022-09-09T12:49:07.537Z,5.05
2022-09-09T12:54:15.136Z,3.65
2022-09-09T12:59:35.537Z,4.90
2022-09-09T13:04:37.644Z,5.68
2022-09-09T13:09:39.961Z,5.25
2022-09-09T13:14:47.729Z,5.53
2022-09-09T13:19:54.303Z,5.50
2022-09-09T13:25:06.720Z,6.43
2022-09-09T13:30:24.092Z,2.80
2022-09-09T13:35:26.499Z,4.65
2022-09-09T13:40:28.748Z,5.50
2022-09-09T13:45:30.922Z,7.13
2022-09-09T13:50:33.311Z,3.97
2022-09-09T13:55:38.110Z,5.35
2022-09-09T14:00:40.832Z,6.68
2022-09-09T14:05:43.467Z,7.82
2022-09-09T14:10:46.015Z,7.10
2022-09-09T14:15:49.694Z,6.00
2022-09-09T14:20:52.000Z,5.10
2022-09-09T14:25:54.117Z,6.57
2022-09-09T14:30:56.646Z,7.22
2022-09-09T14:36:03.776Z,9.65
2022-09-09T14:41:12.962Z,3.95
2022-09-09T14:46:17.799Z,7.85
2022-09-09T14:51:23.277Z,8.70
2022-09-09T14:56:27.959Z,7.30
2022-09-09T15:01:31.924Z,6.57
2022-09-09T15:06:37.538Z,8.13
2022-09-09T15:11:39.863Z,11.05
2022-09-09T15:16:43.329Z,9.23
2022-09-09T15:21:45.459Z,7.88
2022-09-09T15:26:47.984Z,5.70
2022-09-09T15:31:50.183Z,7.10
2022-09-09T15:36:52.628Z,8.60
2022-09-09T15:41:55.008Z,7.72
2022-09-09T15:46:57.643Z,5.95
2022-09-09T15:52:04.586Z,10.63
2022-09-09T15:57:09.691Z,5.32
2022-09-09T16:02:12.050Z,6.63
2022-09-09T16:07:14.655Z,6.50
2022-09-09T16:12:17.348Z,5.13
2022-09-09T16:17:21.489Z,4.00
2022-09-09T16:22:25.548Z,7.57
2022-09-09T16:27:27.664Z,7.00
2022-09-09T16:32:29.968Z,6.18
2022-09-09T16:37:35.024Z,9.13
2022-09-09T16:42:39.595Z,6.63
2022-09-09T16:47:41.841Z,10.27
2022-09-09T16:52:43.908Z,4.40
2022-09-09T16:57:45.953Z,9.05
2022-09-09T17:02:48.215Z,4.35
2022-09-09T17:07:50.415Z,7.43
2022-09-09T17:12:52.872Z,9.20
2022-09-09T17:17:56.060Z,6.40
2022-09-09T17:22:58.200Z,7.00
2022-09-09T17:28:00.822Z,8.40
2022-09-09T17:33:03.469Z,11.30
2022-09-09T17:38:06.615Z,6.43
2022-09-09T17:43:09.641Z,5.20
2022-09-09T17:48:11.968Z,6.15
2022-09-09T17:53:14.023Z,6.50
2022-09-09T17:58:16.800Z,7.18
2022-09-09T18:03:18.903Z,9.05
2022-09-09T18:08:21.059Z,6.80
2022-09-09T18:13:23.225Z,6.63
2022-09-09T18:18:26.280Z,8.18
2022-09-09T18:23:30.100Z,7.03
2022-09-09T18:28:32.240Z,7.00
2022-09-09T18:33:41.094Z,3.28
2022-09-09T18:38:43.407Z,4.35
2022-09-09T18:43:45.814Z,6.15
2022-09-09T18:48:50.578Z,5.72
2022-09-09T18:53:55.084Z,7.65
2022-09-09T18:58:59.897Z,4.65
2022-09-09T19:04:03.270Z,4.20
2022-09-09T19:09:05.540Z,8.57
2022-09-09T19:14:11.637Z,5.28
2022-09-09T19:19:33.313Z,4.80
2022-09-09T19:24:35.502Z,4.28
2022-09-09T19:29:39.632Z,7.25
2022-09-09T19:34:44.165Z,8.52
2022-09-09T19:39:47.479Z,6.00
2022-09-09T19:44:50.925Z,4.05
2022-09-09T19:49:53.048Z,4.60
2022-09-09T19:54:55.568Z,6.25
2022-09-09T20:00:00.903Z,7.10
2022-09-09T20:05:03.080Z,6.18
2022-09-09T20:10:05.660Z,4.25
2022-09-09T20:15:09.654Z,6.43
2022-09-09T20:20:12.680Z,4.68
2022-09-09T20:25:15.676Z,4.45
2022-09-09T20:30:18.035Z,6.88
2022-09-09T20:35:20.233Z,3.97
2022-09-09T20:40:22.507Z,5.82
2022-09-09T20:45:24.568Z,8.55
2022-09-09T20:50:26.627Z,6.10
2022-09-09T20:55:30.746Z,5.65
2022-09-09T21:00:33.237Z,5.40
2022-09-09T21:05:35.414Z,2.85
2022-09-09T21:10:41.028Z,4.82
2022-09-09T21:15:46.577Z,5.03
2022-09-09T21:20:50.475Z,7.68
2022-09-09T21:25:52.667Z,5.55
2022-09-09T21:30:55.980Z,4.88
2022-09-09T21:36:09.183Z,5.45
2022-09-09T21:41:14.500Z,4.72
2022-09-09T21:46:18.126Z,7.90
2022-09-09T21:51:20.327Z,7.47
2022-09-09T21:56:23.693Z,8.68
2022-09-09T22:01:26.321Z,4.78
2022-09-09T22:06:28.631Z,8.65
2022-09-09T22:11:31.485Z,5.97
2022-09-09T22:16:33.761Z,6.63
2022-09-09T22:21:36.131Z,7.55
2022-09-09T22:26:39.291Z,5.75
2022-09-09T22:31:41.405Z,5.35
2022-09-09T22:36:43.607Z,4.38
2022-09-09T22:41:46.241Z,6.65
2022-09-09T22:46:48.369Z,6.72
2022-09-09T22:51:50.529Z,6.70
2022-09-09T22:56:52.796Z,7.22
2022-09-09T23:01:55.147Z,3.88
2022-09-09T23:06:57.908Z,4.57
2022-09-09T23:12:00.817Z,7.90
2022-09-09T23:17:02.868Z,5.22
2022-09-09T23:22:05.138Z,4.28
2022-09-09T23:27:07.879Z,4.10
2022-09-09T23:32:10.021Z,5.43
2022-09-09T23:37:12.981Z,9.82
2022-09-09T23:42:15.192Z,6.60
2022-09-09T23:47:17.312Z,5.47
2022-09-09T23:52:19.438Z,5.68
2022-09-09T23:57:21.889Z,7.38
